Kigoma Airport

Airport
ICAO code: 
HTKA
IATA Code: 
TKQ
Summary
ICAO Region: 
AFI
Territory: 
Location: 
Ujiji, Kigoma Region
Serving: 
Kigoma
Elevation: 
2700 ft
Coordinates: 
Aerial View: 
4° 53' 9.996" S, 29° 40' 14.988" E
Metar
Observation
HTKA 190800Z 00000KT 9999 SCT022 FEW023CB 27/21 Q1018 NOSIG
Station
Kigoma
Date/Time
2022-01-19 08:00:00
Wind direction
Wind speed
00 kts
Lowest cloud amount
scattered clouds
Temperature
27°C
Dew point
21°C
Humidity
69%
QNH
1018 hPa
Weather condition
n/a

Kigoma Airport is an airport in western Tanzania serving Kigoma.

Climatology

Tropical Savanna climate (Köppen climate classification Aw)

Runways

Designator Length Width Surface Rops
16/34 1767 0 UNK No/No
Airport map: 
Aerial View: 

SKYbrary Partners:

Safety knowledge contributed by: